createdAt,value
2023-04-19T00:01:46.226Z,102502.69
2023-04-19T00:04:15.518Z,102500.75
2023-04-19T00:06:43.915Z,102499.34
2023-04-19T00:09:11.834Z,102491.56
2023-04-19T00:11:41.941Z,102492.84
2023-04-19T00:14:09.959Z,102491.00
2023-04-19T00:16:37.949Z,102494.41
2023-04-19T00:19:05.982Z,102489.63
2023-04-19T00:21:33.823Z,102492.75
2023-04-19T00:24:03.848Z,102487.91
2023-04-19T00:26:31.785Z,102476.72
2023-04-19T00:29:01.252Z,102477.03
2023-04-19T00:31:29.285Z,102479.09
2023-04-19T00:33:58.329Z,102478.22
2023-04-19T00:36:28.006Z,102480.53
2023-04-19T00:38:55.893Z,102480.06
2023-04-19T00:41:23.812Z,102478.47
2023-04-19T00:43:51.704Z,102467.88
2023-04-19T00:46:21.579Z,102475.66
2023-04-19T00:48:50.538Z,102471.84
2023-04-19T00:51:18.622Z,102472.50
2023-04-19T00:53:46.993Z,102480.28
2023-04-19T00:56:16.251Z,102478.84
2023-04-19T00:58:44.961Z,102478.47
2023-04-19T01:01:12.973Z,102476.03
2023-04-19T01:03:44.030Z,102482.75
2023-04-19T01:06:12.184Z,102477.53
2023-04-19T01:08:43.033Z,102482.53
2023-04-19T01:11:11.046Z,102478.03
2023-04-19T01:13:39.101Z,102477.81
2023-04-19T01:16:08.329Z,102474.13
2023-04-19T01:18:37.698Z,102476.06
2023-04-19T01:21:09.173Z,102480.19
2023-04-19T01:23:39.444Z,102483.91
2023-04-19T01:26:07.527Z,102471.78
2023-04-19T01:28:35.439Z,102471.63
2023-04-19T01:31:03.831Z,102476.38
2023-04-19T01:33:31.810Z,102471.78
2023-04-19T01:35:59.732Z,102476.34
2023-04-19T01:38:27.743Z,102472.53
2023-04-19T01:40:57.328Z,102478.59
2023-04-19T01:43:25.971Z,102474.09
2023-04-19T01:45:53.896Z,102473.75
2023-04-19T01:48:21.888Z,102468.00
2023-04-19T01:50:49.779Z,102467.84
2023-04-19T01:53:17.751Z,102463.06
2023-04-19T01:55:45.683Z,102468.31
2023-04-19T01:58:14.941Z,102463.47
2023-04-19T02:00:42.990Z,102465.22
2023-04-19T02:03:11.220Z,102473.25
2023-04-19T02:05:40.263Z,102466.19
2023-04-19T02:08:08.370Z,102462.34
2023-04-19T02:10:36.209Z,102461.63
2023-04-19T02:13:04.175Z,102464.78
2023-04-19T02:15:33.494Z,102458.38
2023-04-19T02:18:01.491Z,102460.84
2023-04-19T02:20:29.500Z,102459.97
2023-04-19T02:22:57.505Z,102449.75
2023-04-19T02:25:25.456Z,102450.06
2023-04-19T02:27:53.746Z,102456.50
2023-04-19T02:30:22.025Z,102456.19
2023-04-19T02:32:54.975Z,102450.91
2023-04-19T02:35:23.087Z,102450.53
2023-04-19T02:37:51.214Z,102447.69
2023-04-19T02:40:19.719Z,102449.38
2023-04-19T02:42:47.672Z,102444.59
2023-04-19T02:45:15.672Z,102440.13
2023-04-19T02:47:43.638Z,102438.97
2023-04-19T02:50:13.629Z,102432.13
2023-04-19T02:52:47.364Z,102437.22
2023-04-19T02:55:15.390Z,102447.75
2023-04-19T02:57:43.981Z,102430.47
2023-04-19T03:00:13.997Z,102429.91
2023-04-19T03:02:48.540Z,102432.44
2023-04-19T03:05:18.047Z,102424.31
2023-04-19T03:07:46.149Z,102419.16
2023-04-19T03:10:14.120Z,102419.38
2023-04-19T03:12:43.175Z,102416.94
2023-04-19T03:15:12.004Z,102425.22
2023-04-19T03:17:40.018Z,102413.66
2023-04-19T03:20:11.563Z,102420.16
2023-04-19T03:22:41.092Z,102411.00
2023-04-19T03:25:12.467Z,102407.28
2023-04-19T03:27:42.522Z,102405.09
2023-04-19T03:30:14.426Z,102410.97
2023-04-19T03:32:44.802Z,102414.09
2023-04-19T03:35:14.043Z,102401.53
2023-04-19T03:37:43.552Z,102400.59
2023-04-19T03:40:12.303Z,102397.84
2023-04-19T03:42:40.397Z,102396.78
2023-04-19T03:45:14.005Z,102403.16
2023-04-19T03:47:46.956Z,102408.78
2023-04-19T03:50:14.953Z,102398.63
2023-04-19T03:52:48.206Z,102398.16
2023-04-19T03:55:16.222Z,102400.34
2023-04-19T03:57:44.411Z,102396.22
2023-04-19T04:00:21.115Z,102405.09
2023-04-19T04:02:55.609Z,102393.50
2023-04-19T04:05:24.069Z,102401.75
2023-04-19T04:07:53.573Z,102399.84
2023-04-19T04:10:22.999Z,102398.84
2023-04-19T04:12:51.017Z,102393.41
2023-04-19T04:15:25.854Z,102396.75
2023-04-19T04:17:55.278Z,102392.47
2023-04-19T04:20:23.258Z,102389.78
2023-04-19T04:22:57.041Z,102385.31
2023-04-19T04:25:25.940Z,102384.84
2023-04-19T04:27:54.678Z,102385.66
2023-04-19T04:30:27.693Z,102380.81
2023-04-19T04:32:59.045Z,102389.81
2023-04-19T04:35:28.992Z,102391.41
2023-04-19T04:38:17.570Z,102385.44
2023-04-19T04:40:53.765Z,102380.75
2023-04-19T04:43:22.705Z,102382.88
2023-04-19T04:45:51.081Z,102378.91
2023-04-19T04:48:19.864Z,102376.69
2023-04-19T04:50:47.925Z,102379.19
2023-04-19T04:53:17.232Z,102377.25
2023-04-19T04:55:46.908Z,102377.84
2023-04-19T04:58:15.433Z,102371.75
2023-04-19T05:00:53.161Z,102373.97
2023-04-19T05:03:21.450Z,102365.47
2023-04-19T05:05:56.379Z,102369.50
2023-04-19T05:08:28.038Z,102360.16
2023-04-19T05:11:10.316Z,102370.44
2023-04-19T05:13:39.273Z,102363.88
2023-04-19T05:16:07.637Z,102357.84
2023-04-19T05:18:36.261Z,102361.53
2023-04-19T05:21:04.488Z,102357.69
2023-04-19T05:23:35.147Z,102349.41
2023-04-19T05:26:03.094Z,102348.09
2023-04-19T05:28:31.350Z,102341.38
2023-04-19T05:31:10.128Z,102353.50
2023-04-19T05:33:46.476Z,102339.13
2023-04-19T05:36:15.382Z,102345.09
2023-04-19T05:38:44.783Z,102340.06
2023-04-19T05:41:13.698Z,102333.31
2023-04-19T05:43:41.630Z,102332.88
2023-04-19T05:46:10.179Z,102329.41
2023-04-19T05:48:38.315Z,102336.34
2023-04-19T05:51:31.862Z,102325.81
2023-04-19T05:54:13.646Z,102314.25
2023-04-19T05:56:45.735Z,102314.16
2023-04-19T05:59:14.661Z,102316.59
2023-04-19T06:01:42.920Z,102314.75
2023-04-19T06:04:11.110Z,102314.97
2023-04-19T06:06:39.797Z,102310.63
2023-04-19T06:09:07.908Z,102300.59
2023-04-19T06:11:46.979Z,102297.19
2023-04-19T06:14:18.190Z,102301.53
2023-04-19T06:16:46.658Z,102299.19
2023-04-19T06:19:14.781Z,102293.25
2023-04-19T06:21:42.719Z,102304.34
2023-04-19T06:24:10.928Z,102301.06
2023-04-19T06:26:40.254Z,102308.28
2023-04-19T06:29:08.144Z,102306.50
2023-04-19T06:31:36.188Z,102308.97
2023-04-19T06:34:04.112Z,102296.97
2023-04-19T06:36:32.133Z,102304.44
2023-04-19T06:39:00.118Z,102298.38
2023-04-19T06:41:28.034Z,102290.31
2023-04-19T06:43:57.243Z,102294.44
2023-04-19T06:46:25.270Z,102295.94
2023-04-19T06:48:53.427Z,102285.59
2023-04-19T06:51:21.374Z,102284.44
2023-04-19T06:53:50.635Z,102276.16
2023-04-19T06:56:18.582Z,102265.91
2023-04-19T06:58:46.433Z,102276.19
2023-04-19T07:01:15.762Z,102259.25
2023-04-19T07:03:43.892Z,102251.31
2023-04-19T07:06:11.856Z,102251.66
2023-04-19T07:08:49.385Z,102241.97
2023-04-19T07:11:20.268Z,102245.78
2023-04-19T07:13:49.112Z,102245.50
2023-04-19T07:16:18.538Z,102232.97
2023-04-19T07:18:46.463Z,102217.94
2023-04-19T07:21:14.522Z,102205.53
2023-04-19T07:23:42.558Z,102219.50
2023-04-19T07:26:10.622Z,102199.22
2023-04-19T07:28:40.240Z,102220.59
2023-04-19T07:31:08.201Z,102207.66
2023-04-19T07:33:37.575Z,102202.88
2023-04-19T07:36:06.658Z,102199.19
2023-04-19T07:38:34.496Z,102206.97
2023-04-19T07:41:02.490Z,102204.22
2023-04-19T07:43:31.355Z,102195.22
2023-04-19T07:45:59.280Z,102190.34
2023-04-19T07:48:27.242Z,102185.25
2023-04-19T07:50:56.571Z,102179.59
2023-04-19T07:53:24.491Z,102173.94
2023-04-19T07:55:52.884Z,102173.09
2023-04-19T07:58:20.909Z,102172.69
2023-04-19T08:00:48.846Z,102163.84
2023-04-19T08:03:16.984Z,102167.97
2023-04-19T08:05:45.119Z,102166.72
2023-04-19T08:08:14.414Z,102163.41
2023-04-19T08:10:42.320Z,102161.56
2023-04-19T08:13:10.421Z,102162.91
2023-04-19T08:16:20.493Z,102148.78
2023-04-19T08:18:26.669Z,102151.47
2023-04-19T08:20:55.688Z,102149.94
2023-04-19T08:23:31.801Z,102156.50
2023-04-19T08:26:02.906Z,102148.75
2023-04-19T08:28:31.327Z,102148.63
2023-04-19T08:31:00.457Z,102139.63
2023-04-19T08:33:29.741Z,102142.53
2023-04-19T08:35:57.639Z,102149.94
2023-04-19T08:38:26.895Z,102156.91
2023-04-19T08:40:56.175Z,102139.75
2023-04-19T08:43:28.729Z,102146.50
2023-04-19T08:45:57.691Z,102145.63
2023-04-19T08:48:26.533Z,102137.56
2023-04-19T08:51:04.938Z,102126.28
2023-04-19T08:53:36.583Z,102135.53
2023-04-19T08:56:20.632Z,102136.94
2023-04-19T08:59:00.997Z,102126.31
2023-04-19T09:01:41.579Z,102127.91
2023-04-19T09:04:34.917Z,102133.78
2023-04-19T09:06:58.859Z,102128.88
2023-04-19T09:12:01.538Z,102108.06
2023-04-19T09:14:30.190Z,102104.81
2023-04-19T09:17:15.722Z,102099.81
2023-04-19T09:19:47.930Z,102095.47
2023-04-19T09:22:16.558Z,102093.38
2023-04-19T09:25:22.729Z,102087.25
2023-04-19T09:27:36.338Z,102072.09
2023-04-19T09:30:06.689Z,102080.25
2023-04-19T09:32:47.631Z,102079.84
2023-04-19T09:35:15.964Z,102074.91
2023-04-19T09:40:26.875Z,102074.09
2023-04-19T09:43:07.340Z,102064.16
2023-04-19T09:45:44.945Z,102074.47
2023-04-19T09:48:13.887Z,102062.28
2023-04-19T09:50:57.445Z,102052.47
2023-04-19T09:53:29.227Z,102064.88
2023-04-19T09:56:02.114Z,102067.56
2023-04-19T09:58:42.529Z,102067.69
2023-04-19T10:01:18.561Z,102045.41
2023-04-19T10:03:49.885Z,102043.22
2023-04-19T10:08:51.797Z,102050.53
2023-04-19T10:11:22.980Z,102041.50
2023-04-19T10:13:56.315Z,102040.28
2023-04-19T10:16:24.385Z,102040.03
2023-04-19T10:18:53.360Z,102037.81
2023-04-19T10:21:21.675Z,102022.50
2023-04-19T10:23:50.239Z,102027.47
2023-04-19T10:26:18.161Z,102015.59
2023-04-19T10:28:49.538Z,102024.66
2023-04-19T10:31:23.612Z,102024.66
2023-04-19T10:33:52.516Z,102020.78
2023-04-19T10:36:22.217Z,102014.78
2023-04-19T10:38:52.263Z,102018.78
2023-04-19T10:41:20.897Z,102024.34
2023-04-19T10:44:10.925Z,102030.19
2023-04-19T10:46:41.006Z,102018.81
2023-04-19T10:49:10.010Z,102007.75
2023-04-19T10:51:39.771Z,102016.78
2023-04-19T10:54:08.530Z,102011.34
2023-04-19T10:57:00.108Z,102007.50
2023-04-19T10:59:31.191Z,102005.13
2023-04-19T11:02:00.981Z,102009.28
2023-04-19T11:05:01.777Z,102008.69
2023-04-19T11:07:29.955Z,102004.25
2023-04-19T11:09:57.875Z,102001.81
2023-04-19T11:12:25.824Z,101997.34
2023-04-19T11:14:59.897Z,102006.00
2023-04-19T11:17:31.520Z,101989.06
2023-04-19T11:20:01.189Z,101991.69
2023-04-19T11:22:33.660Z,101972.88
2023-04-19T11:25:09.595Z,101992.25
2023-04-19T11:27:38.610Z,101990.31
2023-04-19T11:30:11.448Z,101990.50
2023-04-19T11:32:48.235Z,101981.19
2023-04-19T11:35:16.928Z,101974.22
2023-04-19T11:37:44.786Z,101982.81
2023-04-19T11:40:16.894Z,101974.38
2023-04-19T11:42:45.247Z,101967.19
2023-04-19T11:45:30.162Z,101978.66
2023-04-19T11:48:00.989Z,101986.50
2023-04-19T11:50:37.112Z,101988.09
2023-04-19T11:53:13.579Z,101981.88
2023-04-19T11:55:44.431Z,101971.75
2023-04-19T11:58:29.327Z,101974.41
2023-04-19T12:01:06.691Z,101981.09
2023-04-19T12:03:35.697Z,101970.50
2023-04-19T12:06:05.098Z,101967.63
2023-04-19T12:08:34.189Z,101962.72
2023-04-19T12:11:03.391Z,101960.91
2023-04-19T12:13:32.583Z,101962.34
2023-04-19T12:16:02.489Z,101955.63
2023-04-19T12:18:44.565Z,101948.66
2023-04-19T12:21:12.796Z,101954.16
2023-04-19T12:23:40.670Z,101942.09
2023-04-19T12:26:08.601Z,101954.69
2023-04-19T12:28:36.567Z,101946.16
2023-04-19T12:31:06.486Z,101945.84
2023-04-19T12:33:34.348Z,101942.38
2023-04-19T12:36:02.248Z,101939.47
2023-04-19T12:38:30.143Z,101920.59
2023-04-19T12:40:58.041Z,101925.34
2023-04-19T12:43:25.951Z,101922.78
2023-04-19T12:45:54.212Z,101928.66
2023-04-19T12:48:23.712Z,101919.84
2023-04-19T12:50:51.975Z,101923.50
2023-04-19T12:53:20.098Z,101914.78
2023-04-19T12:55:49.662Z,101902.38
2023-04-19T12:58:18.636Z,101906.84
2023-04-19T13:00:46.568Z,101890.31
2023-04-19T13:03:14.842Z,101898.28
2023-04-19T13:05:44.197Z,101895.53
2023-04-19T13:08:12.112Z,101894.56
2023-04-19T13:10:40.113Z,101875.50
2023-04-19T13:13:08.009Z,101876.91
2023-04-19T13:15:36.083Z,101870.66
2023-04-19T13:18:04.149Z,101859.81
2023-04-19T13:20:32.022Z,101851.38
2023-04-19T13:23:01.265Z,101848.94
2023-04-19T13:25:29.163Z,101846.47
2023-04-19T13:27:56.995Z,101847.00
2023-04-19T13:30:25.157Z,101832.50
2023-04-19T13:32:52.993Z,101835.91
2023-04-19T13:35:21.803Z,101836.47
2023-04-19T13:37:51.170Z,101828.53
2023-04-19T13:40:20.672Z,101833.44
2023-04-19T13:42:48.646Z,101845.41
2023-04-19T13:45:16.582Z,101854.34
2023-04-19T13:47:44.598Z,101840.00
2023-04-19T13:50:13.081Z,101845.81
2023-04-19T13:52:41.147Z,101840.41
2023-04-19T13:55:09.940Z,101849.47
2023-04-19T13:57:39.201Z,101839.94
2023-04-19T14:00:08.648Z,101842.84
2023-04-19T14:02:36.936Z,101852.41
2023-04-19T14:05:05.580Z,101844.59
2023-04-19T14:07:33.878Z,101845.09
2023-04-19T14:10:02.038Z,101846.09
2023-04-19T14:12:29.906Z,101840.16
2023-04-19T14:14:59.288Z,101845.19
2023-04-19T14:17:27.383Z,101834.88
2023-04-19T14:19:55.264Z,101836.34
2023-04-19T14:22:23.213Z,101831.47
2023-04-19T14:24:51.137Z,101825.47
2023-04-19T14:27:19.232Z,101830.03
2023-04-19T14:29:47.281Z,101818.84
2023-04-19T14:32:26.149Z,101807.09
2023-04-19T14:34:55.785Z,101806.09
2023-04-19T14:37:24.804Z,101797.06
2023-04-19T14:39:52.785Z,101809.81
2023-04-19T14:42:22.923Z,101814.56
2023-04-19T14:44:52.518Z,101816.84
2023-04-19T14:47:22.468Z,101808.22
2023-04-19T14:49:50.629Z,101807.97
2023-04-19T14:52:18.501Z,101806.44
2023-04-19T14:54:46.433Z,101800.09
2023-04-19T14:57:14.513Z,101799.16
2023-04-19T14:59:42.481Z,101799.16
2023-04-19T15:02:13.248Z,101818.56
2023-04-19T15:04:43.111Z,101812.66
2023-04-19T15:07:11.489Z,101822.94
2023-04-19T15:09:40.394Z,101838.56
2023-04-19T15:12:08.702Z,101836.22
2023-04-19T15:14:37.027Z,101847.78
2023-04-19T15:17:05.228Z,101849.63
2023-04-19T15:19:33.502Z,101861.72
2023-04-19T15:22:04.182Z,101854.16
2023-04-19T15:24:33.009Z,101878.84
2023-04-19T15:27:01.611Z,101878.22
2023-04-19T15:29:30.075Z,101895.97
2023-04-19T15:31:58.196Z,101899.44
2023-04-19T15:34:26.329Z,101916.06
2023-04-19T15:36:54.222Z,101924.28
2023-04-19T15:39:23.468Z,101927.88
2023-04-19T15:41:52.133Z,101916.88
2023-04-19T15:44:20.067Z,101923.19
2023-04-19T15:46:47.982Z,101922.13
2023-04-19T15:49:16.165Z,101920.03
2023-04-19T15:51:44.285Z,101912.38
2023-04-19T15:54:12.237Z,101917.59
2023-04-19T15:56:41.497Z,101913.81
2023-04-19T15:59:09.387Z,101908.28
2023-04-19T16:01:37.317Z,101905.50
2023-04-19T16:04:05.696Z,101903.34
2023-04-19T16:06:33.814Z,101896.00
2023-04-19T16:09:01.708Z,101888.25
2023-04-19T16:11:29.928Z,101893.75
2023-04-19T16:13:59.169Z,101876.38
2023-04-19T16:16:30.859Z,101875.28
2023-04-19T16:18:58.862Z,101875.41
2023-04-19T16:21:28.630Z,101873.69
2023-04-19T16:23:56.840Z,101868.44
2023-04-19T16:26:24.854Z,101863.09
2023-04-19T16:28:52.718Z,101849.63
2023-04-19T16:31:21.952Z,101861.38
2023-04-19T16:33:49.826Z,101857.94
2023-04-19T16:36:17.970Z,101854.75
2023-04-19T16:38:45.834Z,101847.66
2023-04-19T16:41:13.793Z,101842.69
2023-04-19T16:43:41.629Z,101847.44
2023-04-19T16:46:09.598Z,101847.50
2023-04-19T16:48:38.826Z,101847.16
2023-04-19T16:51:06.922Z,101843.38
2023-04-19T16:53:34.777Z,101834.81
2023-04-19T16:56:03.614Z,101845.69
2023-04-19T16:58:31.735Z,101848.97
2023-04-19T17:00:59.726Z,101839.59
2023-04-19T17:03:29.448Z,101839.06
2023-04-19T17:05:59.216Z,101840.00
2023-04-19T17:08:27.176Z,101835.28
2023-04-19T17:10:55.074Z,101834.09
2023-04-19T17:13:22.991Z,101827.59
2023-04-19T17:15:50.916Z,101833.72
2023-04-19T17:18:18.857Z,101836.56
2023-04-19T17:20:46.709Z,101830.03
2023-04-19T17:23:15.987Z,101828.13
2023-04-19T17:25:44.162Z,101834.91
2023-04-19T17:28:12.043Z,101827.38
2023-04-19T17:30:39.923Z,101830.84
2023-04-19T17:33:07.883Z,101832.28
2023-04-19T17:35:36.050Z,101834.22
2023-04-19T17:38:03.952Z,101825.19
2023-04-19T17:40:33.166Z,101834.91
2023-04-19T17:43:00.985Z,101843.06
2023-04-19T17:45:29.143Z,101833.06
2023-04-19T17:47:57.057Z,101833.41
2023-04-19T17:50:26.382Z,101847.53
2023-04-19T17:52:55.004Z,101846.91
2023-04-19T17:55:23.039Z,101843.34
2023-04-19T17:57:52.318Z,101841.75
2023-04-19T18:00:20.643Z,101837.81
2023-04-19T18:02:49.575Z,101851.56
2023-04-19T18:05:18.341Z,101839.94
2023-04-19T18:07:46.284Z,101843.84
2023-04-19T18:10:14.119Z,101848.19
2023-04-19T18:12:42.011Z,101841.22
2023-04-19T18:15:12.455Z,101847.72
2023-04-19T18:17:41.148Z,101840.47
2023-04-19T18:20:11.288Z,101835.19
2023-04-19T18:22:41.076Z,101840.91
2023-04-19T18:25:09.762Z,101841.03
2023-04-19T18:27:37.644Z,101841.03
2023-04-19T18:30:07.966Z,101847.00
2023-04-19T18:32:37.463Z,101847.09
2023-04-19T18:35:08.714Z,101840.97
2023-04-19T18:37:36.715Z,101845.53
2023-04-19T18:40:06.992Z,101847.94
2023-04-19T18:42:34.976Z,101856.03
2023-04-19T18:45:04.138Z,101846.72
2023-04-19T18:47:32.185Z,101850.69
2023-04-19T18:50:05.977Z,101856.97
2023-04-19T18:52:35.433Z,101857.75
2023-04-19T18:55:03.708Z,101857.44
2023-04-19T18:57:34.482Z,101863.81
2023-04-19T19:00:05.577Z,101855.00
2023-04-19T19:02:36.065Z,101852.69
2023-04-19T19:05:07.393Z,101856.72
2023-04-19T19:07:37.136Z,101853.78
2023-04-19T19:10:18.500Z,101858.78
2023-04-19T19:12:50.039Z,101853.53
2023-04-19T19:15:18.140Z,101852.25
2023-04-19T19:17:49.845Z,101861.06
2023-04-19T19:20:19.991Z,101866.03
2023-04-19T19:22:48.301Z,101852.59
2023-04-19T19:25:16.302Z,101866.53
2023-04-19T19:27:58.373Z,101865.69
2023-04-19T19:30:33.882Z,101858.84
2023-04-19T19:33:05.022Z,101862.25
2023-04-19T19:35:34.414Z,101865.28
2023-04-19T19:38:02.219Z,101866.91
2023-04-19T19:40:32.371Z,101866.41
2023-04-19T19:43:01.256Z,101853.63
2023-04-19T19:45:29.652Z,101858.81
2023-04-19T19:47:59.096Z,101858.72
2023-04-19T19:51:02.137Z,101875.69
2023-04-19T19:53:19.253Z,101875.94
2023-04-19T19:55:47.221Z,101884.63
2023-04-19T19:58:32.626Z,101883.00
2023-04-19T20:01:03.940Z,101889.72
2023-04-19T20:03:37.557Z,101873.78
2023-04-19T20:08:43.699Z,101892.16
2023-04-19T20:11:11.952Z,101885.31
2023-04-19T20:13:39.804Z,101877.66
2023-04-19T20:16:07.748Z,101880.53
2023-04-19T20:18:37.793Z,101881.09
2023-04-19T20:21:05.710Z,101885.09
2023-04-19T20:23:33.566Z,101887.75
2023-04-19T20:26:02.810Z,101890.91
2023-04-19T20:28:30.669Z,101886.34
2023-04-19T20:30:58.578Z,101878.34
2023-04-19T20:33:28.195Z,101883.88
2023-04-19T20:35:56.753Z,101883.25
2023-04-19T20:38:26.490Z,101884.66
2023-04-19T20:40:54.728Z,101890.84
2023-04-19T20:43:23.991Z,101883.59
2023-04-19T20:45:52.105Z,101871.63
2023-04-19T20:48:19.939Z,101870.59
2023-04-19T20:50:47.756Z,101885.00
2023-04-19T20:53:15.658Z,101881.78
2023-04-19T20:55:43.618Z,101881.91
2023-04-19T20:58:11.911Z,101878.09
2023-04-19T21:00:41.155Z,101879.75
2023-04-19T21:03:09.143Z,101883.00
2023-04-19T21:05:37.084Z,101868.28
2023-04-19T21:08:05.297Z,101875.50
2023-04-19T21:10:33.218Z,101872.75
2023-04-19T21:13:01.134Z,101878.38
2023-04-19T21:15:29.367Z,101877.75
2023-04-19T21:17:58.689Z,101876.13
2023-04-19T21:20:26.815Z,101889.28
2023-04-19T21:22:54.692Z,101882.41
2023-04-19T21:25:22.719Z,101888.34
2023-04-19T21:27:50.568Z,101886.00
2023-04-19T21:30:18.507Z,101890.16
2023-04-19T21:32:46.561Z,101891.69
2023-04-19T21:35:15.898Z,101881.63
2023-04-19T21:37:43.857Z,101889.94
2023-04-19T21:40:12.380Z,101894.91
2023-04-19T21:42:40.308Z,101891.22
2023-04-19T21:45:09.191Z,101891.78
2023-04-19T21:47:37.099Z,101887.19
2023-04-19T21:50:05.496Z,101896.13
2023-04-19T21:52:34.747Z,101894.97
2023-04-19T21:55:02.627Z,101891.00
2023-04-19T21:57:31.056Z,101894.31
2023-04-19T21:59:59.033Z,101889.72
2023-04-19T22:02:27.061Z,101893.16
2023-04-19T22:04:54.970Z,101897.56
2023-04-19T22:07:23.959Z,101896.34
2023-04-19T22:09:54.330Z,101888.84
2023-04-19T22:12:22.200Z,101894.69
2023-04-19T22:14:50.086Z,101892.09
2023-04-19T22:17:19.224Z,101901.16
2023-04-19T22:19:47.635Z,101900.72
2023-04-19T22:22:15.671Z,101894.34
2023-04-19T22:24:56.145Z,101889.94
2023-04-19T22:27:26.817Z,101883.44
2023-04-19T22:29:54.742Z,101886.09
2023-04-19T22:32:22.947Z,101881.16
2023-04-19T22:34:51.077Z,101886.78
2023-04-19T22:37:18.972Z,101868.44
2023-04-19T22:39:46.897Z,101869.28
2023-04-19T22:42:14.906Z,101875.94
2023-04-19T22:44:44.198Z,101878.28
2023-04-19T22:47:13.120Z,101872.34
2023-04-19T22:49:43.072Z,101871.28
2023-04-19T22:52:11.719Z,101881.88
2023-04-19T22:54:39.674Z,101874.81
2023-04-19T22:57:07.575Z,101859.22
2023-04-19T22:59:35.490Z,101872.59
2023-04-19T23:02:04.842Z,101864.06
2023-04-19T23:04:35.108Z,101858.88
2023-04-19T23:07:03.815Z,101871.75
2023-04-19T23:09:31.687Z,101873.63
2023-04-19T23:12:00.498Z,101876.38
2023-04-19T23:14:28.407Z,101881.50
2023-04-19T23:16:57.120Z,101878.69
2023-04-19T23:19:26.381Z,101867.72
2023-04-19T23:21:54.259Z,101866.03
2023-04-19T23:24:22.186Z,101865.16
2023-04-19T23:26:50.060Z,101854.81
2023-04-19T23:29:18.161Z,101867.91
2023-04-19T23:31:46.355Z,101865.00
2023-04-19T23:34:14.983Z,101861.53
2023-04-19T23:36:44.280Z,101851.06
2023-04-19T23:39:12.334Z,101845.53
2023-04-19T23:41:40.234Z,101850.34
2023-04-19T23:44:08.156Z,101858.19
2023-04-19T23:46:36.424Z,101854.94
2023-04-19T23:49:04.266Z,101845.00
2023-04-19T23:51:32.882Z,101846.91
2023-04-19T23:54:02.083Z,101844.16
2023-04-19T23:56:30.032Z,101841.38
2023-04-19T23:58:58.462Z,101835.28
